createdAt,value
2022-11-10T00:00:35.470Z,8.70
2022-11-10T00:03:22.061Z,8.80
2022-11-10T00:06:09.570Z,8.70
2022-11-10T00:08:55.313Z,8.80
2022-11-10T00:11:41.911Z,8.80
2022-11-10T00:14:46.208Z,8.80
2022-11-10T00:17:32.427Z,8.60
2022-11-10T00:20:18.298Z,8.70
2022-11-10T00:23:04.301Z,8.60
2022-11-10T00:25:50.224Z,8.50
2022-11-10T00:28:36.231Z,8.60
2022-11-10T00:31:22.310Z,8.70
2022-11-10T00:34:12.452Z,8.50
2022-11-10T00:36:58.380Z,8.50
2022-11-10T00:39:44.391Z,8.40
2022-11-10T00:42:30.313Z,8.40
2022-11-10T00:45:16.195Z,8.40
2022-11-10T00:48:02.194Z,8.30
2022-11-10T00:50:48.552Z,8.40
2022-11-10T00:53:34.451Z,8.50
2022-11-10T00:56:21.509Z,8.60
2022-11-10T00:59:07.684Z,8.50
2022-11-10T01:01:53.844Z,8.30
2022-11-10T01:04:39.893Z,8.40
2022-11-10T01:07:26.025Z,8.40
2022-11-10T01:10:12.076Z,8.30
2022-11-10T01:12:58.129Z,8.30
2022-11-10T01:15:43.955Z,8.20
2022-11-10T01:18:29.878Z,8.30
2022-11-10T01:21:15.981Z,8.30
2022-11-10T01:24:02.224Z,8.30
2022-11-10T01:26:48.779Z,8.50
2022-11-10T01:29:34.782Z,8.40
2022-11-10T01:32:21.020Z,8.40
2022-11-10T01:35:07.203Z,8.50
2022-11-10T01:37:53.493Z,8.30
2022-11-10T01:40:40.495Z,8.40
2022-11-10T01:43:27.530Z,8.40
2022-11-10T01:46:14.291Z,8.40
2022-11-10T01:49:03.602Z,8.30
2022-11-10T01:51:57.849Z,8.20
2022-11-10T01:54:47.221Z,8.10
2022-11-10T01:57:34.823Z,8.20
2022-11-10T02:00:21.089Z,8.20
2022-11-10T02:03:13.670Z,8.20
2022-11-10T02:06:00.531Z,8.30
2022-11-10T02:08:47.777Z,8.40
2022-11-10T02:11:34.913Z,8.30
2022-11-10T02:14:21.184Z,8.20
2022-11-10T02:17:07.042Z,8.30
2022-11-10T02:19:53.024Z,8.30
2022-11-10T02:22:39.725Z,8.20
2022-11-10T02:25:32.457Z,8.20
2022-11-10T02:28:18.349Z,8.10
2022-11-10T02:31:05.783Z,8.10
2022-11-10T02:33:51.852Z,8.10
2022-11-10T02:36:37.831Z,8.20
2022-11-10T02:39:24.288Z,8.30
2022-11-10T02:42:11.409Z,8.10
2022-11-10T02:44:58.226Z,8.30
2022-11-10T02:47:44.212Z,8.30
2022-11-10T02:50:30.295Z,8.30
2022-11-10T02:53:16.399Z,8.30
2022-11-10T02:56:01.972Z,8.30
2022-11-10T02:58:48.158Z,8.20
2022-11-10T03:01:34.284Z,8.20
2022-11-10T03:04:20.488Z,8.20
2022-11-10T03:07:06.438Z,8.20
2022-11-10T03:09:52.408Z,8.30
2022-11-10T03:12:38.049Z,8.30
2022-11-10T03:15:24.858Z,8.40
2022-11-10T03:18:11.068Z,8.60
2022-11-10T03:20:57.342Z,8.80
2022-11-10T03:23:43.218Z,8.80
2022-11-10T03:26:29.571Z,8.70
2022-11-10T03:29:15.724Z,8.80
2022-11-10T03:32:01.653Z,8.70
2022-11-10T03:34:47.686Z,8.70
2022-11-10T03:37:33.772Z,8.60
2022-11-10T03:40:20.303Z,8.40
2022-11-10T03:43:06.351Z,8.30
2022-11-10T03:45:52.350Z,8.20
2022-11-10T03:48:38.502Z,8.10
2022-11-10T03:51:24.434Z,8.10
2022-11-10T03:54:10.297Z,8.10
2022-11-10T03:56:56.397Z,8.10
2022-11-10T03:59:42.478Z,8.10
2022-11-10T04:02:28.401Z,8.20
2022-11-10T04:05:32.932Z,8.10
2022-11-10T04:08:37.387Z,8.00
2022-11-10T04:11:42.318Z,8.20
2022-11-10T04:14:47.078Z,8.20
2022-11-10T04:17:33.070Z,8.20
2022-11-10T04:20:19.057Z,8.30
2022-11-10T04:23:23.861Z,8.30
2022-11-10T04:26:30.880Z,8.20
2022-11-10T04:29:18.759Z,8.20
2022-11-10T04:32:04.857Z,8.10
2022-11-10T04:34:51.109Z,8.00
2022-11-10T04:37:37.041Z,7.90
2022-11-10T04:40:22.891Z,8.20
2022-11-10T04:43:08.738Z,8.30
2022-11-10T04:45:55.571Z,8.20
2022-11-10T04:48:41.467Z,8.20
2022-11-10T04:51:38.470Z,8.20
2022-11-10T04:54:24.407Z,8.30
2022-11-10T04:57:10.437Z,8.10
2022-11-10T04:59:56.628Z,7.90
2022-11-10T05:02:42.604Z,8.00
2022-11-10T05:05:29.033Z,7.90
2022-11-10T05:08:15.825Z,7.90
2022-11-10T05:11:01.754Z,7.90
2022-11-10T05:13:47.330Z,7.90
2022-11-10T05:16:33.682Z,7.90
2022-11-10T05:19:19.359Z,7.80
2022-11-10T05:22:06.972Z,7.80
2022-11-10T05:24:53.114Z,7.80
2022-11-10T05:27:39.243Z,7.70
2022-11-10T05:30:25.304Z,7.80
2022-11-10T05:33:14.746Z,7.70
2022-11-10T05:36:00.659Z,7.80
2022-11-10T05:38:46.447Z,7.80
2022-11-10T05:41:32.319Z,7.80
2022-11-10T05:44:18.252Z,7.90
2022-11-10T05:47:04.511Z,7.90
2022-11-10T05:49:50.454Z,7.90
2022-11-10T05:52:39.729Z,7.90
2022-11-10T05:55:27.772Z,8.00
2022-11-10T05:58:13.637Z,8.10
2022-11-10T06:00:59.871Z,8.30
2022-11-10T06:03:45.675Z,8.20
2022-11-10T06:06:31.593Z,8.30
2022-11-10T06:09:17.485Z,8.40
2022-11-10T06:12:04.186Z,8.40
2022-11-10T06:14:50.062Z,8.40
2022-11-10T06:17:38.101Z,8.30
2022-11-10T06:20:24.837Z,8.10
2022-11-10T06:23:12.288Z,8.20
2022-11-10T06:25:58.146Z,8.20
2022-11-10T06:28:44.087Z,8.30
2022-11-10T06:31:30.052Z,8.10
2022-11-10T06:34:16.083Z,8.20
2022-11-10T06:37:02.091Z,8.20
2022-11-10T06:39:47.929Z,8.20
2022-11-10T06:42:34.603Z,8.20
2022-11-10T06:45:21.697Z,8.20
2022-11-10T06:48:11.931Z,8.00
2022-11-10T06:51:01.329Z,8.10
2022-11-10T06:53:47.587Z,8.00
2022-11-10T06:56:34.800Z,8.10
2022-11-10T06:59:20.485Z,8.20
2022-11-10T07:02:08.801Z,8.20
2022-11-10T07:04:54.874Z,8.00
2022-11-10T07:07:41.155Z,8.10
2022-11-10T07:10:27.240Z,8.10
2022-11-10T07:13:13.237Z,8.10
2022-11-10T07:15:58.998Z,8.40
2022-11-10T07:18:47.770Z,8.50
2022-11-10T07:21:33.791Z,8.60
2022-11-10T07:24:19.404Z,8.70
2022-11-10T07:27:05.426Z,9.00
2022-11-10T07:29:51.650Z,9.50
2022-11-10T07:32:37.688Z,9.70
2022-11-10T07:35:23.817Z,9.80
2022-11-10T07:38:12.009Z,9.90
2022-11-10T07:40:58.030Z,9.70
2022-11-10T07:43:44.005Z,9.50
2022-11-10T07:49:19.094Z,9.60
2022-11-10T07:52:04.649Z,9.90
2022-11-10T07:54:49.731Z,9.90
2022-11-10T07:57:34.815Z,9.90
2022-11-10T08:00:19.893Z,10.00
2022-11-10T08:03:17.754Z,10.40
2022-11-10T08:06:03.918Z,11.00
2022-11-10T08:08:49.515Z,11.40
2022-11-10T08:11:35.552Z,11.60
2022-11-10T08:14:22.400Z,12.10
2022-11-10T08:17:08.026Z,12.90
2022-11-10T08:19:54.037Z,13.40
2022-11-10T08:22:39.736Z,13.70
2022-11-10T08:25:30.342Z,13.50
2022-11-10T08:28:20.552Z,12.80
2022-11-10T08:31:06.647Z,12.20
2022-11-10T08:33:52.540Z,12.20
2022-11-10T08:36:38.590Z,12.30
2022-11-10T08:39:38.498Z,12.40
2022-11-10T08:42:25.233Z,12.50
2022-11-10T08:45:11.677Z,13.10
2022-11-10T08:48:05.402Z,14.30
2022-11-10T08:50:51.715Z,15.30
2022-11-10T08:53:38.643Z,15.80
2022-11-10T08:56:24.871Z,16.70
2022-11-10T08:59:10.923Z,17.50
2022-11-10T09:01:58.025Z,17.50
2022-11-10T09:04:43.845Z,17.80
2022-11-10T09:07:31.288Z,18.60
2022-11-10T09:10:17.410Z,19.00
2022-11-10T09:13:05.213Z,18.40
2022-11-10T09:15:50.993Z,18.90
2022-11-10T09:18:36.636Z,18.90
2022-11-10T09:21:22.573Z,18.80
2022-11-10T09:24:08.633Z,18.80
2022-11-10T09:26:54.517Z,19.50
2022-11-10T09:29:40.647Z,18.40
2022-11-10T09:32:26.587Z,18.70
2022-11-10T09:35:13.555Z,19.50
2022-11-10T09:37:59.468Z,20.30
2022-11-10T09:41:13.613Z,20.00
2022-11-10T09:44:42.909Z,20.30
2022-11-10T09:48:05.113Z,20.80
2022-11-10T09:51:16.759Z,18.90
2022-11-10T09:54:22.575Z,19.20
2022-11-10T09:57:13.590Z,19.90
2022-11-10T09:59:59.725Z,21.10
2022-11-10T10:03:01.029Z,20.20
2022-11-10T10:06:02.540Z,19.40
2022-11-10T10:09:14.185Z,20.60
2022-11-10T10:12:16.449Z,20.60
2022-11-10T10:15:25.533Z,21.60
2022-11-10T10:18:20.643Z,22.30
2022-11-10T10:21:25.540Z,22.90
2022-11-10T10:24:21.157Z,22.90
2022-11-10T10:27:12.319Z,21.20
2022-11-10T10:29:58.064Z,20.10
2022-11-10T10:32:44.327Z,19.20
2022-11-10T10:35:31.888Z,19.90
2022-11-10T10:38:43.648Z,19.10
2022-11-10T10:41:32.264Z,17.10
2022-11-10T10:44:19.588Z,15.80
2022-11-10T10:47:05.512Z,15.10
2022-11-10T10:49:51.524Z,14.80
2022-11-10T10:52:37.317Z,14.50
2022-11-10T10:55:29.076Z,14.40
2022-11-10T10:58:28.350Z,14.40
2022-11-10T11:01:17.071Z,14.30
2022-11-10T11:04:25.074Z,14.40
2022-11-10T11:07:24.959Z,14.30
2022-11-10T11:10:25.444Z,14.40
2022-11-10T11:13:23.236Z,14.30
2022-11-10T11:16:12.181Z,14.40
2022-11-10T11:18:58.596Z,14.30
2022-11-10T11:22:07.476Z,14.30
2022-11-10T11:24:56.278Z,14.30
2022-11-10T11:27:59.651Z,14.20
2022-11-10T11:31:08.624Z,14.20
2022-11-10T11:34:04.431Z,14.20
2022-11-10T11:37:19.852Z,14.20
2022-11-10T11:40:29.336Z,14.30
2022-11-10T11:43:39.743Z,14.30
2022-11-10T11:46:58.264Z,14.40
2022-11-10T11:50:19.738Z,14.40
2022-11-10T11:53:05.628Z,14.40
2022-11-10T11:55:57.738Z,14.50
2022-11-10T11:59:07.152Z,14.40
2022-11-10T12:01:58.813Z,14.50
2022-11-10T12:05:06.279Z,14.50
2022-11-10T12:08:14.794Z,14.50
2022-11-10T12:11:12.394Z,14.60
2022-11-10T12:14:00.752Z,14.60
2022-11-10T12:17:01.380Z,14.60
2022-11-10T12:20:18.338Z,14.60
2022-11-10T12:23:45.268Z,14.60
2022-11-10T12:26:55.063Z,14.50
2022-11-10T12:30:05.978Z,14.60
2022-11-10T12:33:35.316Z,14.60
2022-11-10T12:36:24.195Z,14.60
2022-11-10T12:39:21.890Z,14.50
2022-11-10T12:42:15.326Z,14.50
2022-11-10T12:45:07.112Z,14.50
2022-11-10T12:47:54.272Z,14.50
2022-11-10T12:50:51.398Z,14.60
2022-11-10T12:53:40.639Z,14.60
2022-11-10T12:56:37.264Z,14.50
2022-11-10T12:59:28.948Z,14.50
2022-11-10T13:02:26.913Z,14.40
2022-11-10T13:05:15.608Z,14.50
2022-11-10T13:08:27.742Z,14.50
2022-11-10T13:11:13.231Z,14.50
2022-11-10T13:14:01.371Z,14.50
2022-11-10T13:16:55.650Z,14.50
2022-11-10T13:19:41.546Z,14.60
2022-11-10T13:22:36.755Z,14.50
2022-11-10T13:25:42.382Z,14.50
2022-11-10T13:28:46.587Z,14.60
2022-11-10T13:31:32.528Z,14.50
2022-11-10T13:34:21.174Z,14.60
2022-11-10T13:37:34.964Z,14.60
2022-11-10T13:40:29.497Z,14.60
2022-11-10T13:43:18.388Z,14.60
2022-11-10T13:46:05.711Z,14.50
2022-11-10T13:49:21.153Z,14.50
2022-11-10T13:52:35.803Z,14.60
2022-11-10T13:55:56.654Z,14.50
2022-11-10T13:58:44.797Z,14.40
2022-11-10T14:01:34.230Z,14.30
2022-11-10T14:04:35.594Z,14.30
2022-11-10T14:07:21.878Z,14.20
2022-11-10T14:10:17.625Z,14.20
2022-11-10T14:13:39.082Z,14.10
2022-11-10T14:16:28.694Z,14.00
2022-11-10T14:19:24.022Z,14.00
2022-11-10T14:22:24.772Z,14.00
2022-11-10T14:25:36.154Z,13.80
2022-11-10T14:28:34.467Z,13.60
2022-11-10T14:31:23.173Z,13.60
2022-11-10T14:34:15.119Z,13.60
2022-11-10T14:37:03.587Z,13.70
2022-11-10T14:40:01.227Z,13.60
2022-11-10T14:42:47.703Z,13.70
2022-11-10T14:45:33.386Z,13.60
2022-11-10T14:48:22.151Z,13.60
2022-11-10T14:51:16.711Z,13.50
2022-11-10T14:54:02.826Z,13.30
2022-11-10T14:56:48.932Z,13.30
2022-11-10T14:59:37.412Z,13.20
2022-11-10T15:02:23.497Z,13.20
2022-11-10T15:05:14.694Z,13.20
2022-11-10T15:08:01.691Z,13.20
2022-11-10T15:10:50.595Z,13.20
2022-11-10T15:13:38.657Z,13.20
2022-11-10T15:16:25.869Z,13.10
2022-11-10T15:19:27.366Z,13.10
2022-11-10T15:22:21.923Z,13.00
2022-11-10T15:25:15.018Z,13.00
2022-11-10T15:28:12.276Z,12.90
2022-11-10T15:31:05.480Z,12.80
2022-11-10T15:33:56.813Z,12.60
2022-11-10T15:36:42.882Z,12.60
2022-11-10T15:39:30.094Z,12.50
2022-11-10T15:42:21.868Z,12.40
2022-11-10T15:45:08.119Z,12.50
2022-11-10T15:47:54.971Z,12.40
2022-11-10T15:50:47.703Z,12.30
2022-11-10T15:53:41.122Z,12.30
2022-11-10T15:56:26.998Z,12.30
2022-11-10T15:59:13.446Z,12.40
2022-11-10T16:01:59.406Z,12.30
2022-11-10T16:04:46.136Z,12.30
2022-11-10T16:07:32.102Z,12.40
2022-11-10T16:10:17.953Z,12.10
2022-11-10T16:13:04.021Z,12.00
2022-11-10T16:15:50.507Z,11.90
2022-11-10T16:18:39.958Z,12.00
2022-11-10T16:21:29.085Z,11.90
2022-11-10T16:24:15.094Z,11.80
2022-11-10T16:27:00.881Z,11.70
2022-11-10T16:29:46.587Z,11.60
2022-11-10T16:32:32.563Z,11.50
2022-11-10T16:35:18.093Z,11.30
2022-11-10T16:38:28.893Z,11.10
2022-11-10T16:41:14.881Z,10.90
2022-11-10T16:44:00.845Z,10.70
2022-11-10T16:46:52.090Z,10.50
2022-11-10T16:49:45.025Z,10.50
2022-11-10T16:52:30.877Z,10.50
2022-11-10T16:55:16.596Z,10.50
2022-11-10T16:58:02.639Z,10.50
2022-11-10T17:00:49.197Z,10.50
2022-11-10T17:03:42.940Z,10.50
2022-11-10T17:06:30.353Z,10.40
2022-11-10T17:09:23.230Z,10.40
2022-11-10T17:12:13.088Z,10.40
2022-11-10T17:14:59.027Z,10.50
2022-11-10T17:17:46.278Z,10.50
2022-11-10T17:20:40.724Z,10.70
2022-11-10T17:23:27.016Z,10.80
2022-11-10T17:26:15.705Z,10.90
2022-11-10T17:29:01.403Z,11.00
2022-11-10T17:31:50.149Z,11.10
2022-11-10T17:34:35.768Z,11.00
2022-11-10T17:37:21.759Z,11.10
2022-11-10T17:40:19.840Z,11.10
2022-11-10T17:43:05.583Z,11.00
2022-11-10T17:45:51.677Z,11.00
2022-11-10T17:48:37.476Z,10.90
2022-11-10T17:51:23.522Z,11.00
2022-11-10T17:54:15.771Z,10.90
2022-11-10T17:57:04.312Z,10.90
2022-11-10T17:59:50.266Z,11.00
2022-11-10T18:02:36.415Z,10.90
2022-11-10T18:05:22.353Z,10.70
2022-11-10T18:08:08.731Z,10.60
2022-11-10T18:10:54.232Z,10.50
2022-11-10T18:13:41.604Z,10.70
2022-11-10T18:16:27.581Z,10.80
2022-11-10T18:19:13.498Z,10.70
2022-11-10T18:21:59.451Z,10.70
2022-11-10T18:24:45.665Z,10.60
2022-11-10T18:27:31.539Z,10.50
2022-11-10T18:30:18.241Z,10.40
2022-11-10T18:33:05.001Z,10.10
2022-11-10T18:35:50.725Z,10.00
2022-11-10T18:38:36.699Z,9.90
2022-11-10T18:41:40.760Z,9.70
2022-11-10T18:44:26.890Z,9.70
2022-11-10T18:47:13.229Z,9.50
2022-11-10T18:49:59.052Z,9.40
2022-11-10T18:52:45.898Z,9.30
2022-11-10T18:55:31.965Z,9.20
2022-11-10T18:58:17.755Z,9.10
2022-11-10T19:01:05.825Z,9.10
2022-11-10T19:03:52.189Z,9.00
2022-11-10T19:06:37.869Z,9.20
2022-11-10T19:09:23.595Z,9.20
2022-11-10T19:12:09.638Z,9.30
2022-11-10T19:14:55.460Z,9.10
2022-11-10T19:17:41.354Z,9.10
2022-11-10T19:20:27.194Z,9.00
2022-11-10T19:23:12.951Z,8.90
2022-11-10T19:26:00.673Z,9.10
2022-11-10T19:28:49.049Z,9.20
2022-11-10T19:31:34.790Z,9.20
2022-11-10T19:34:21.239Z,9.10
2022-11-10T19:37:07.269Z,9.10
2022-11-10T19:39:52.946Z,9.20
2022-11-10T19:42:38.864Z,9.20
2022-11-10T19:45:24.828Z,9.20
2022-11-10T19:48:10.703Z,9.20
2022-11-10T19:50:57.581Z,9.30
2022-11-10T19:53:45.673Z,9.20
2022-11-10T19:56:34.106Z,9.30
2022-11-10T19:59:21.093Z,9.20
2022-11-10T20:02:07.864Z,9.20
2022-11-10T20:05:12.181Z,9.00
2022-11-10T20:08:13.072Z,8.90
2022-11-10T20:11:07.306Z,8.90
2022-11-10T20:13:55.602Z,8.90
2022-11-10T20:16:41.150Z,9.00
2022-11-10T20:19:26.983Z,8.90
2022-11-10T20:22:13.547Z,8.90
2022-11-10T20:24:59.261Z,8.80
2022-11-10T20:27:45.371Z,8.70
2022-11-10T20:30:32.421Z,8.60
2022-11-10T20:33:18.091Z,8.60
2022-11-10T20:36:17.384Z,8.40
2022-11-10T20:39:06.458Z,8.30
2022-11-10T20:41:52.587Z,8.20
2022-11-10T20:44:39.047Z,8.20
2022-11-10T20:47:27.351Z,8.00
2022-11-10T20:50:16.356Z,7.90
2022-11-10T20:53:05.675Z,7.80
2022-11-10T20:55:57.761Z,7.80
2022-11-10T20:58:45.026Z,7.80
2022-11-10T21:01:32.442Z,7.80
2022-11-10T21:04:18.517Z,7.70
2022-11-10T21:07:04.415Z,7.80
2022-11-10T21:09:50.295Z,7.80
2022-11-10T21:12:50.977Z,7.70
2022-11-10T21:15:40.391Z,7.80
2022-11-10T21:18:34.263Z,7.70
2022-11-10T21:21:34.459Z,7.70
2022-11-10T21:24:20.909Z,7.70
2022-11-10T21:27:06.711Z,7.70
2022-11-10T21:29:52.843Z,7.60
2022-11-10T21:32:38.390Z,7.50
2022-11-10T21:35:24.588Z,7.40
2022-11-10T21:38:11.829Z,7.40
2022-11-10T21:40:57.926Z,7.30
2022-11-10T21:43:43.974Z,7.40
2022-11-10T21:46:29.908Z,7.50
2022-11-10T21:49:15.878Z,7.30
2022-11-10T21:52:01.507Z,7.20
2022-11-10T21:54:47.373Z,7.20
2022-11-10T21:57:33.380Z,7.30
2022-11-10T22:00:19.567Z,7.40
2022-11-10T22:03:05.659Z,7.30
2022-11-10T22:05:51.644Z,7.20
2022-11-10T22:08:38.799Z,7.10
2022-11-10T22:11:42.591Z,7.00
2022-11-10T22:14:46.916Z,6.90
2022-11-10T22:17:51.311Z,7.00
2022-11-10T22:20:37.091Z,6.90
2022-11-10T22:23:43.227Z,7.00
2022-11-10T22:26:29.182Z,6.80
2022-11-10T22:29:15.083Z,6.80
2022-11-10T22:32:01.929Z,6.80
2022-11-10T22:34:48.157Z,6.70
2022-11-10T22:37:34.041Z,6.60
2022-11-10T22:40:38.461Z,6.60
2022-11-10T22:43:42.836Z,6.70
2022-11-10T22:46:29.021Z,6.60
2022-11-10T22:49:16.880Z,6.60
2022-11-10T22:52:02.502Z,6.70
2022-11-10T22:54:48.449Z,6.80
2022-11-10T22:57:34.370Z,6.70
2022-11-10T23:00:20.200Z,6.60
2022-11-10T23:03:05.992Z,6.50
2022-11-10T23:05:56.320Z,6.50
2022-11-10T23:08:42.995Z,6.40
2022-11-10T23:11:30.620Z,6.30
2022-11-10T23:14:16.184Z,6.30
2022-11-10T23:17:02.027Z,6.30
2022-11-10T23:19:47.930Z,6.20
2022-11-10T23:22:33.714Z,6.20
2022-11-10T23:25:19.488Z,6.20
2022-11-10T23:28:05.470Z,6.30
2022-11-10T23:30:51.305Z,6.30
2022-11-10T23:33:39.157Z,6.40
2022-11-10T23:36:26.568Z,6.30
2022-11-10T23:39:13.576Z,6.30
2022-11-10T23:41:59.365Z,6.30
2022-11-10T23:44:45.148Z,6.30
2022-11-10T23:47:31.137Z,6.30
2022-11-10T23:50:17.288Z,6.20
2022-11-10T23:53:03.109Z,6.10
2022-11-10T23:55:57.108Z,6.10
2022-11-10T23:58:42.788Z,6.00
